createdAt,value
2018-12-29T00:03:14.935Z,102536.83
2018-12-29T00:07:20.033Z,102529.05
2018-12-29T00:11:25.492Z,102531.17
2018-12-29T00:15:30.663Z,102532.48
2018-12-29T00:19:35.869Z,102538.61
2018-12-29T00:23:40.842Z,102528.61
2018-12-29T00:27:45.887Z,102529.05
2018-12-29T00:31:51.413Z,102537.30
2018-12-29T00:35:56.542Z,102537.30
2018-12-29T00:40:01.462Z,102549.95
2018-12-29T00:44:06.561Z,102552.52
2018-12-29T00:48:11.670Z,102564.25
2018-12-29T00:52:16.728Z,102561.25
2018-12-29T00:56:21.721Z,102550.38
2018-12-29T01:00:26.736Z,102549.05
2018-12-29T01:04:31.808Z,102549.05
2018-12-29T01:08:37.213Z,102552.52
2018-12-29T01:12:42.274Z,102542.56
2018-12-29T01:16:47.401Z,102545.13
2018-12-29T01:20:52.430Z,102543.83
2018-12-29T01:24:57.577Z,102545.13
2018-12-29T01:29:02.749Z,102540.78
2018-12-29T01:33:07.797Z,102543.83
2018-12-29T01:37:12.932Z,102551.25
2018-12-29T01:41:18.033Z,102552.09
2018-12-29T01:45:23.121Z,102550.82
2018-12-29T01:49:28.221Z,102554.30
2018-12-29T01:53:33.550Z,102555.60
2018-12-29T01:57:57.545Z,102553.43
2018-12-29T02:02:02.725Z,102542.56
2018-12-29T02:06:07.627Z,102557.78
2018-12-29T02:10:12.650Z,102555.61
2018-12-29T02:14:17.802Z,102556.03
2018-12-29T02:18:22.898Z,102550.83
2018-12-29T02:22:28.019Z,102551.69
2018-12-29T02:26:33.064Z,102559.95
2018-12-29T02:30:38.230Z,102558.25
2018-12-29T02:34:43.249Z,102568.65
2018-12-29T02:38:48.406Z,102555.61
2018-12-29T02:42:53.501Z,102575.64
2018-12-29T02:46:58.603Z,102578.64
2018-12-29T02:51:03.693Z,102582.55
2018-12-29T02:55:08.758Z,102580.81
2018-12-29T02:59:13.861Z,102579.07
2018-12-29T03:03:18.913Z,102586.02
2018-12-29T03:07:23.986Z,102588.59
2018-12-29T03:11:29.060Z,102581.20
2018-12-29T03:15:40.900Z,102591.19
2018-12-29T03:19:46.016Z,102594.23
2018-12-29T03:23:51.077Z,102573.81
2018-12-29T03:27:56.164Z,102566.86
2018-12-29T03:32:01.248Z,102569.88
2018-12-29T03:36:06.276Z,102553.38
2018-12-29T03:40:11.427Z,102549.86
2018-12-29T03:44:16.519Z,102544.25
2018-12-29T03:48:21.577Z,102532.95
2018-12-29T03:52:26.632Z,102545.12
2018-12-29T03:56:31.662Z,102550.33
2018-12-29T04:00:37.035Z,102544.69
2018-12-29T04:04:42.121Z,102534.70
2018-12-29T04:09:25.379Z,102526.01
2018-12-29T04:13:30.430Z,102535.13
2018-12-29T04:17:35.495Z,102525.56
2018-12-29T04:21:40.536Z,102527.75
2018-12-29T04:25:45.607Z,102522.09
2018-12-29T04:29:50.687Z,102519.05
2018-12-29T04:33:55.761Z,102512.09
2018-12-29T04:38:00.846Z,102505.15
2018-12-29T04:42:05.893Z,102502.54
2018-12-29T04:46:11.028Z,102505.59
2018-12-29T04:50:16.101Z,102490.41
2018-12-29T04:54:21.203Z,102486.92
2018-12-29T04:58:26.253Z,102479.54
2018-12-29T05:02:31.288Z,102483.88
2018-12-29T05:06:36.447Z,102492.14
2018-12-29T05:10:41.425Z,102496.05
2018-12-29T05:14:46.497Z,102488.23
2018-12-29T05:18:51.550Z,102493.45
2018-12-29T05:22:56.602Z,102501.30
2018-12-29T05:27:01.654Z,102489.53
2018-12-29T05:31:06.656Z,102492.57
2018-12-29T05:35:11.701Z,102506.92
2018-12-29T05:39:17.009Z,102523.47
2018-12-29T05:43:22.136Z,102523.03
2018-12-29T05:47:27.120Z,102543.91
2018-12-29T05:51:32.479Z,102558.25
2018-12-29T05:55:37.888Z,102554.34
2018-12-29T05:59:42.867Z,102551.73
2018-12-29T06:03:47.922Z,102559.12
2018-12-29T06:07:53.529Z,102565.64
2018-12-29T06:12:00.179Z,102569.98
2018-12-29T06:16:05.299Z,102561.76
2018-12-29T06:20:10.427Z,102562.16
2018-12-29T06:24:15.463Z,102562.59
2018-12-29T06:28:20.470Z,102556.51
2018-12-29T06:32:26.092Z,102555.64
2018-12-29T06:36:31.300Z,102548.70
2018-12-29T06:40:36.343Z,102556.98
2018-12-29T06:44:41.404Z,102551.32
2018-12-29T06:48:46.379Z,102556.97
2018-12-29T06:52:51.427Z,102567.41
2018-12-29T06:56:56.404Z,102562.19
2018-12-29T07:01:01.484Z,102561.31
2018-12-29T07:05:06.556Z,102553.05
2018-12-29T07:09:11.603Z,102567.86
2018-12-29T07:13:18.798Z,102576.56
2018-12-29T07:17:24.352Z,102569.17
2018-12-29T07:21:29.412Z,102579.61
2018-12-29T07:25:34.681Z,102581.78
2018-12-29T07:29:39.748Z,102576.55
2018-12-29T07:33:44.858Z,102584.39
2018-12-29T07:37:49.880Z,102579.59
2018-12-29T07:41:54.892Z,102572.63
2018-12-29T07:45:59.907Z,102581.33
2018-12-29T07:50:05.001Z,102576.14
2018-12-29T07:54:10.350Z,102576.58
2018-12-29T07:58:15.416Z,102588.75
2018-12-29T08:02:20.612Z,102569.60
2018-12-29T08:06:25.648Z,102563.06
2018-12-29T08:10:30.950Z,102559.16
2018-12-29T08:14:35.994Z,102561.75
2018-12-29T08:18:40.985Z,102561.31
2018-12-29T08:22:46.043Z,102565.24
2018-12-29T08:26:51.016Z,102563.92
2018-12-29T08:30:56.413Z,102566.97
2018-12-29T08:35:01.466Z,102572.64
2018-12-29T08:39:07.409Z,102570.45
2018-12-29T08:43:12.406Z,102564.35
2018-12-29T08:47:17.698Z,102562.17
2018-12-29T08:51:22.685Z,102556.53
2018-12-29T08:55:27.824Z,102563.93
2018-12-29T08:59:32.823Z,102570.88
2018-12-29T09:03:37.806Z,102554.76
2018-12-29T09:07:42.898Z,102549.08
2018-12-29T09:11:48.039Z,102549.52
2018-12-29T09:15:53.105Z,102560.85
2018-12-29T09:19:58.403Z,102553.88
2018-12-29T09:24:03.755Z,102551.66
2018-12-29T09:28:08.712Z,102556.00
2018-12-29T09:32:13.818Z,102546.00
2018-12-29T09:36:18.909Z,102559.05
2018-12-29T09:40:23.974Z,102548.58
2018-12-29T09:44:29.119Z,102533.31
2018-12-29T09:48:34.251Z,102541.58
2018-12-29T09:52:39.704Z,102537.19
2018-12-29T09:56:44.895Z,102531.06
2018-12-29T10:00:50.013Z,102514.06
2018-12-29T10:04:55.502Z,102510.53
2018-12-29T10:09:00.571Z,102501.31
2018-12-29T10:13:05.739Z,102493.88
2018-12-29T10:17:10.808Z,102478.55
2018-12-29T10:21:15.879Z,102475.48
2018-12-29T10:25:20.944Z,102464.05
2018-12-29T10:29:26.024Z,102460.07
2018-12-29T10:33:31.096Z,102448.67
2018-12-29T10:37:36.168Z,102450.68
2018-12-29T10:41:41.142Z,102454.15
2018-12-29T10:45:46.206Z,102463.27
2018-12-29T10:49:51.306Z,102470.28
2018-12-29T10:53:56.450Z,102473.75
2018-12-29T10:58:01.506Z,102477.64
2018-12-29T11:02:06.638Z,102462.25
2018-12-29T11:06:11.825Z,102445.94
2018-12-29T11:10:16.916Z,102412.20
2018-12-29T11:14:21.982Z,102409.48
2018-12-29T11:18:27.029Z,102399.73
2018-12-29T11:22:32.225Z,102394.47
2018-12-29T11:26:37.308Z,102385.31
2018-12-29T11:30:52.202Z,102408.48
2018-12-29T11:34:57.225Z,102409.86
2018-12-29T11:39:02.292Z,102405.44
2018-12-29T11:43:07.363Z,102393.24
2018-12-29T11:47:12.418Z,102379.31
2018-12-29T11:51:17.486Z,102375.27
2018-12-29T11:55:22.858Z,102356.26
2018-12-29T11:59:28.206Z,102350.22
2018-12-29T12:03:33.263Z,102336.16
2018-12-29T12:07:38.487Z,102343.97
2018-12-29T12:11:44.387Z,102364.94
2018-12-29T12:15:49.353Z,102351.27
2018-12-29T12:19:54.447Z,102365.04
2018-12-29T12:23:59.466Z,102354.12
2018-12-29T12:28:04.541Z,102350.64
2018-12-29T12:32:09.609Z,102330.94
2018-12-29T12:36:14.557Z,102312.11
2018-12-29T12:40:19.649Z,102322.58
2018-12-29T12:44:24.648Z,102291.95
2018-12-29T12:48:29.777Z,102285.39
2018-12-29T12:52:35.141Z,102286.19
2018-12-29T12:56:40.267Z,102286.23
2018-12-29T13:00:45.492Z,102277.03
2018-12-29T13:04:50.954Z,102283.17
2018-12-29T13:08:56.055Z,102274.88
2018-12-29T13:13:01.487Z,102269.64
2018-12-29T13:17:06.637Z,102279.23
2018-12-29T13:21:11.718Z,102257.42
2018-12-29T13:25:16.808Z,102240.46
2018-12-29T13:29:21.869Z,102260.18
2018-12-29T13:33:26.879Z,102278.95
2018-12-29T13:37:32.837Z,102264.92
2018-12-29T13:45:54.861Z,102280.98
2018-12-29T13:49:59.951Z,102261.38
2018-12-29T13:54:05.083Z,102242.33
2018-12-29T13:58:10.125Z,102206.17
2018-12-29T14:02:15.314Z,102186.99
2018-12-29T14:06:20.513Z,102171.72
2018-12-29T14:10:25.766Z,102180.44
2018-12-29T14:14:30.890Z,102181.70
2018-12-29T14:18:35.998Z,102185.63
2018-12-29T14:22:41.472Z,102158.03
2018-12-29T14:26:46.589Z,102162.55
2018-12-29T14:30:51.669Z,102175.12
2018-12-29T14:34:56.770Z,102161.27
2018-12-29T14:39:01.817Z,102159.11
2018-12-29T14:43:06.802Z,102137.34
2018-12-29T14:47:12.205Z,102135.11
2018-12-29T14:51:17.278Z,102119.33
2018-12-29T14:55:22.650Z,102122.45
2018-12-29T14:59:27.841Z,102135.92
2018-12-29T15:03:32.901Z,102146.84
2018-12-29T15:07:37.983Z,102122.09
2018-12-29T15:11:43.065Z,102095.42
2018-12-29T15:15:48.061Z,102115.48
2018-12-29T15:19:53.353Z,102115.13
2018-12-29T15:23:58.354Z,102097.02
2018-12-29T15:28:03.406Z,102120.22
2018-12-29T15:32:15.594Z,102116.32
2018-12-29T15:36:20.708Z,102142.54
2018-12-29T15:40:25.775Z,102125.48
2018-12-29T15:44:30.865Z,102118.49
2018-12-29T15:48:36.245Z,102128.50
2018-12-29T15:52:41.301Z,102145.92
2018-12-29T15:56:46.314Z,102171.64
2018-12-29T16:00:51.395Z,102158.91
2018-12-29T16:04:56.506Z,102158.02
2018-12-29T16:09:01.589Z,102134.11
2018-12-29T16:13:08.500Z,102157.29
2018-12-29T16:17:13.426Z,102148.13
2018-12-29T16:21:30.663Z,102168.21
2018-12-29T16:25:35.786Z,102163.00
2018-12-29T16:29:40.775Z,102177.06
2018-12-29T16:33:45.731Z,102173.66
2018-12-29T16:37:57.969Z,102176.75
2018-12-29T16:42:03.029Z,102169.75
2018-12-29T16:46:08.005Z,102201.62
2018-12-29T16:50:13.162Z,102164.95
2018-12-29T16:54:18.152Z,102156.70
2018-12-29T16:58:23.161Z,102130.47
2018-12-29T17:02:28.789Z,102124.37
2018-12-29T17:06:33.796Z,102120.44
2018-12-29T17:10:38.785Z,102126.06
2018-12-29T17:19:00.886Z,102108.99
2018-12-29T17:23:06.002Z,102128.11
2018-12-29T17:27:11.286Z,102133.72
2018-12-29T17:31:16.322Z,102100.05
2018-12-29T17:40:05.926Z,102110.78
2018-12-29T17:44:10.954Z,102095.78
2018-12-29T17:48:16.057Z,102090.92
2018-12-29T17:52:21.178Z,102106.08
2018-12-29T17:56:26.240Z,102120.91
2018-12-29T18:00:31.417Z,102116.92
2018-12-29T18:04:36.798Z,102129.46
2018-12-29T18:08:41.971Z,102104.53
2018-12-29T18:17:38.439Z,102114.34
2018-12-29T18:21:43.471Z,102109.97
2018-12-29T18:25:48.529Z,102113.07
2018-12-29T18:30:12.983Z,102108.56
2018-12-29T18:34:18.010Z,102130.79
2018-12-29T18:43:07.181Z,102100.59
2018-12-29T18:47:12.645Z,102094.39
2018-12-29T18:51:17.753Z,102114.41
2018-12-29T18:55:30.113Z,102105.23
2018-12-29T18:59:35.110Z,102114.28
2018-12-29T19:03:40.235Z,102116.11
2018-12-29T19:07:57.120Z,102102.02
2018-12-29T19:12:02.213Z,102102.02
2018-12-29T19:16:07.554Z,102124.44
2018-12-29T19:29:26.348Z,102111.00
2018-12-29T19:33:31.595Z,102118.84
2018-12-29T19:37:58.125Z,102116.83
2018-12-29T19:42:03.196Z,102112.55
2018-12-29T19:46:08.580Z,102126.09
2018-12-29T19:50:13.617Z,102107.25
2018-12-29T19:54:18.689Z,102113.74
2018-12-29T19:58:23.751Z,102114.19
2018-12-29T20:02:28.785Z,102094.49
2018-12-29T20:06:34.053Z,102114.76
2018-12-29T20:10:39.051Z,102099.98
2018-12-29T20:14:56.019Z,102110.95
2018-12-29T20:19:01.021Z,102110.95
2018-12-29T20:23:06.155Z,102104.02
2018-12-29T20:27:11.411Z,102109.03
2018-12-29T20:31:16.424Z,102118.10
2018-12-29T20:35:21.611Z,102116.02
2018-12-29T20:43:45.413Z,102123.23
2018-12-29T20:47:52.236Z,102126.69
2018-12-29T20:51:57.191Z,102126.69
2018-12-29T20:56:02.302Z,102124.66
2018-12-29T21:00:09.057Z,102114.75
2018-12-29T21:04:14.045Z,102127.63
2018-12-29T21:08:19.030Z,102132.13
2018-12-29T21:12:24.095Z,102142.14
2018-12-29T21:16:29.103Z,102142.14
2018-12-29T21:20:34.092Z,102136.84
2018-12-29T21:24:39.193Z,102125.41
2018-12-29T21:28:44.382Z,102141.28
2018-12-29T21:32:49.785Z,102140.02
2018-12-29T21:36:54.834Z,102135.66
2018-12-29T21:40:59.931Z,102136.92
2018-12-29T21:45:05.155Z,102143.95
2018-12-29T21:49:11.206Z,102144.97
2018-12-29T21:53:16.347Z,102160.38
2018-12-29T21:57:21.357Z,102137.16
2018-12-29T22:01:26.499Z,102143.48
2018-12-29T22:05:32.294Z,102159.34
2018-12-29T22:09:37.369Z,102184.56
2018-12-29T22:13:42.312Z,102178.55
2018-12-29T22:17:47.324Z,102180.40
2018-12-29T22:21:52.420Z,102182.30
2018-12-29T22:25:57.501Z,102188.19
2018-12-29T22:30:02.628Z,102195.17
2018-12-29T22:34:07.748Z,102193.45
2018-12-29T22:38:12.800Z,102213.69
2018-12-29T22:42:17.809Z,102219.52
2018-12-29T22:46:22.919Z,102219.52
2018-12-29T22:50:28.003Z,102229.34
2018-12-29T22:54:33.056Z,102245.77
2018-12-29T22:58:45.372Z,102255.95
2018-12-29T23:02:50.404Z,102251.33
2018-12-29T23:07:16.489Z,102251.33
2018-12-29T23:11:21.553Z,102235.38
2018-12-29T23:15:26.615Z,102233.69
2018-12-29T23:19:31.671Z,102238.09
2018-12-29T23:23:48.529Z,102232.05
2018-12-29T23:27:53.581Z,102245.89
2018-12-29T23:31:58.580Z,102244.33
2018-12-29T23:36:47.907Z,102262.98
2018-12-29T23:40:53.200Z,102261.00
2018-12-29T23:44:58.441Z,102265.40
2018-12-29T23:58:34.963Z,102277.34
